CheckWX is a tool to help pilots better visualize weather data.  It is not intended as a substitute for an official pre-flight weather briefing.

05:31:09 UTC

KGBK METAR
Magnolia
Magnolia, Louisiana, USA
Current

16 mins ago

KGBK 240515Z AUTO 19011KT 5SM BR FEW022 SCT028 SCT032 23/23 A3003 RMK A01
Observed
Feb-24 @ 05:15 UTC
Wind
  • 190° at 11 KTS
Visibility
5 SM
Flight Rules
MVFR
Conditions
Mist
Cloud Levels
  • Few at 2,200' AGL
  • Scattered at 2,800' AGL
  • Scattered at 3,200' AGL
Temperature
23°C / 73°F
Dewpoint
23°C / 73°F
Humidity
100%
Altimeter
30.03" Hg
Pressure
1016.92 hPa
Previous

36 mins ago

KGBK 240455Z AUTO 18011KT 5SM BR FEW021 BKN025 BKN034 23/23 A3002 RMK A01
Observed
Feb-24 @ 04:55 UTC
Wind
  • 180° at 11 KTS
Visibility
5 SM
Flight Rules
MVFR
Conditions
Mist
Cloud Levels
  • Few at 2,100' AGL
  • Broken at 2,500' AGL
  • Broken at 3,400' AGL
Temperature
23°C / 73°F
Dewpoint
23°C / 73°F
Humidity
100%
Altimeter
30.02" Hg
Pressure
1016.62 hPa
Previous

56 mins ago

KGBK 240435Z AUTO 18011KT 5SM BR BKN021 BKN025 23/23 A3002 RMK A01
Observed
Feb-24 @ 04:35 UTC
Wind
  • 180° at 11 KTS
Visibility
5 SM
Flight Rules
MVFR
Conditions
Mist
Cloud Levels
  • Broken at 2,100' AGL
  • Broken at 2,500' AGL
Temperature
23°C / 73°F
Dewpoint
23°C / 73°F
Humidity
100%
Altimeter
30.02" Hg
Pressure
1016.62 hPa